createdAt,value
2018-01-18T00:02:16.027Z,2.90
2018-01-18T00:04:43.544Z,3.00
2018-01-18T00:07:11.865Z,3.00
2018-01-18T00:09:39.377Z,3.00
2018-01-18T00:12:06.968Z,2.90
2018-01-18T00:14:34.495Z,2.90
2018-01-18T00:17:03.668Z,3.00
2018-01-18T00:19:31.209Z,3.00
2018-01-18T00:21:59.647Z,3.00
2018-01-18T00:24:27.178Z,3.10
2018-01-18T00:26:54.775Z,3.00
2018-01-18T00:29:22.339Z,3.10
2018-01-18T00:31:49.890Z,3.00
2018-01-18T00:34:17.459Z,3.00
2018-01-18T00:36:44.981Z,3.00
2018-01-18T00:39:13.416Z,3.00
2018-01-18T00:41:40.926Z,3.00
2018-01-18T00:44:09.231Z,3.00
2018-01-18T00:46:36.740Z,3.00
2018-01-18T00:49:04.352Z,3.00
2018-01-18T00:51:31.914Z,2.90
2018-01-18T00:53:59.465Z,2.80
2018-01-18T00:56:27.738Z,2.60
2018-01-18T00:58:56.066Z,2.50
2018-01-18T01:01:23.582Z,2.50
2018-01-18T01:03:51.876Z,2.60
2018-01-18T01:06:19.399Z,2.50
2018-01-18T01:08:46.925Z,2.50
2018-01-18T01:11:14.458Z,2.40
2018-01-18T01:13:41.962Z,2.50
2018-01-18T01:16:09.492Z,2.40
2018-01-18T01:18:37.053Z,2.40
2018-01-18T01:21:04.587Z,2.40
2018-01-18T01:23:32.101Z,2.40
2018-01-18T01:25:59.710Z,2.60
2018-01-18T01:28:27.908Z,2.50
2018-01-18T01:30:55.582Z,2.50
2018-01-18T01:33:23.094Z,2.60
2018-01-18T01:35:51.555Z,2.60
2018-01-18T01:38:19.149Z,2.60
2018-01-18T01:40:46.707Z,2.50
2018-01-18T01:43:14.926Z,2.50
2018-01-18T01:45:42.455Z,2.60
2018-01-18T01:48:09.993Z,2.50
2018-01-18T01:50:38.283Z,2.40
2018-01-18T01:53:05.803Z,2.40
2018-01-18T01:55:34.131Z,2.40
2018-01-18T01:58:01.637Z,2.40
2018-01-18T02:00:29.196Z,2.30
2018-01-18T02:02:57.421Z,2.20
2018-01-18T02:05:24.939Z,2.20
2018-01-18T02:07:52.557Z,2.10
2018-01-18T02:10:20.067Z,2.10
2018-01-18T02:12:47.603Z,2.10
2018-01-18T02:15:15.110Z,2.20
2018-01-18T02:17:44.191Z,2.30
2018-01-18T02:20:12.467Z,2.20
2018-01-18T02:22:40.874Z,2.10
2018-01-18T02:25:08.383Z,2.10
2018-01-18T02:27:35.902Z,2.10
2018-01-18T02:30:03.443Z,2.20
2018-01-18T02:32:31.027Z,2.30
2018-01-18T02:34:58.547Z,2.30
2018-01-18T02:37:27.122Z,2.30
2018-01-18T02:39:54.726Z,2.30
2018-01-18T02:42:22.945Z,2.40
2018-01-18T02:44:50.569Z,2.40
2018-01-18T02:47:18.117Z,2.30
2018-01-18T02:49:45.684Z,2.30
2018-01-18T02:52:14.023Z,2.40
2018-01-18T02:54:42.102Z,2.30
2018-01-18T02:57:10.727Z,2.40
2018-01-18T02:59:38.232Z,2.30
2018-01-18T03:02:07.360Z,2.40
2018-01-18T03:04:35.872Z,2.40
2018-01-18T03:07:03.431Z,2.30
2018-01-18T03:09:30.992Z,2.50
2018-01-18T03:11:58.548Z,2.50
2018-01-18T03:14:26.625Z,2.60
2018-01-18T03:16:54.692Z,2.50
2018-01-18T03:19:22.258Z,2.60
2018-01-18T03:21:49.807Z,2.70
2018-01-18T03:24:17.333Z,2.60
2018-01-18T03:26:45.623Z,2.60
2018-01-18T03:29:14.983Z,2.60
2018-01-18T03:31:42.493Z,2.50
2018-01-18T03:34:11.738Z,2.60
2018-01-18T03:36:39.260Z,2.60
2018-01-18T03:39:06.795Z,2.50
2018-01-18T03:41:35.126Z,2.50
2018-01-18T03:44:03.588Z,2.50
2018-01-18T03:46:31.162Z,2.60
2018-01-18T03:48:58.741Z,2.70
2018-01-18T03:51:26.262Z,2.70
2018-01-18T03:53:53.786Z,2.70
2018-01-18T03:56:21.397Z,2.70
2018-01-18T03:58:48.946Z,2.80
2018-01-18T04:01:16.458Z,2.90
2018-01-18T04:03:44.903Z,3.00
2018-01-18T04:06:12.448Z,3.00
2018-01-18T04:08:40.576Z,2.90
2018-01-18T04:11:08.105Z,2.90
2018-01-18T04:13:35.626Z,2.90
2018-01-18T04:16:03.910Z,3.00
2018-01-18T04:18:32.855Z,2.90
2018-01-18T04:21:00.429Z,2.90
2018-01-18T04:23:28.012Z,2.90
2018-01-18T04:25:56.315Z,2.90
2018-01-18T04:28:24.804Z,2.90
2018-01-18T04:30:53.194Z,2.90
2018-01-18T04:33:21.657Z,2.90
2018-01-18T04:35:49.184Z,2.90
2018-01-18T04:38:16.721Z,2.90
2018-01-18T04:40:46.414Z,3.00
2018-01-18T04:43:14.067Z,3.00
2018-01-18T04:45:42.345Z,3.00
2018-01-18T04:48:09.895Z,3.10
2018-01-18T04:50:37.767Z,3.10
2018-01-18T04:53:05.813Z,3.10
2018-01-18T04:55:34.705Z,3.00
2018-01-18T04:58:03.084Z,3.00
2018-01-18T05:00:31.379Z,3.00
2018-01-18T05:02:58.944Z,3.00
2018-01-18T05:05:26.487Z,3.00
2018-01-18T05:07:54.792Z,3.10
2018-01-18T05:10:22.335Z,3.10
2018-01-18T05:12:49.851Z,3.00
2018-01-18T05:15:17.455Z,3.00
2018-01-18T05:17:44.959Z,3.00
2018-01-18T05:20:12.482Z,2.90
2018-01-18T05:22:40.040Z,2.90
2018-01-18T05:25:07.597Z,2.90
2018-01-18T05:27:35.112Z,2.90
2018-01-18T05:30:02.810Z,2.90
2018-01-18T05:32:30.466Z,2.90
2018-01-18T05:34:58.846Z,2.90
2018-01-18T05:37:27.015Z,2.90
2018-01-18T05:39:55.318Z,3.00
2018-01-18T05:42:22.894Z,3.00
2018-01-18T05:44:51.013Z,3.00
2018-01-18T05:47:19.413Z,3.00
2018-01-18T05:49:47.717Z,3.00
2018-01-18T05:52:15.226Z,3.00
2018-01-18T05:54:43.170Z,3.00
2018-01-18T05:57:10.684Z,3.00
2018-01-18T05:59:38.980Z,3.00
2018-01-18T06:02:06.527Z,3.00
2018-01-18T06:04:34.106Z,2.90
2018-01-18T06:07:01.664Z,2.90
2018-01-18T06:09:29.189Z,2.90
2018-01-18T06:11:57.484Z,2.80
2018-01-18T06:14:25.775Z,2.80
2018-01-18T06:16:53.309Z,2.80
2018-01-18T06:19:21.612Z,2.80
2018-01-18T06:21:50.487Z,2.80
2018-01-18T06:24:18.764Z,2.80
2018-01-18T06:26:47.088Z,2.70
2018-01-18T06:29:14.602Z,2.70
2018-01-18T06:31:42.896Z,2.70
2018-01-18T06:34:10.461Z,2.70
2018-01-18T06:36:37.987Z,2.70
2018-01-18T06:39:06.419Z,2.70
2018-01-18T06:41:33.952Z,2.60
2018-01-18T06:44:01.519Z,2.60
2018-01-18T06:46:29.078Z,2.60
2018-01-18T06:48:56.595Z,2.50
2018-01-18T06:51:24.912Z,2.30
2018-01-18T06:53:52.452Z,2.30
2018-01-18T06:56:20.786Z,2.20
2018-01-18T06:58:48.443Z,2.20
2018-01-18T07:01:15.992Z,2.00
2018-01-18T07:03:43.540Z,2.10
2018-01-18T07:06:11.060Z,2.00
2018-01-18T07:08:38.659Z,1.90
2018-01-18T07:11:06.185Z,1.90
2018-01-18T07:13:33.779Z,1.90
2018-01-18T07:16:01.311Z,1.90
2018-01-18T07:18:28.896Z,2.00
2018-01-18T07:20:57.182Z,2.00
2018-01-18T07:23:24.744Z,2.00
2018-01-18T07:25:52.331Z,2.00
2018-01-18T07:28:19.851Z,2.00
2018-01-18T07:30:48.125Z,2.00
2018-01-18T07:33:16.428Z,2.00
2018-01-18T07:35:43.937Z,2.00
2018-01-18T07:38:11.470Z,2.10
2018-01-18T07:40:38.975Z,2.10
2018-01-18T07:43:07.276Z,2.20
2018-01-18T07:45:34.784Z,2.10
2018-01-18T07:48:02.304Z,2.20
2018-01-18T07:50:29.849Z,2.10
2018-01-18T07:52:58.233Z,2.10
2018-01-18T07:55:25.735Z,2.10
2018-01-18T07:57:53.233Z,2.20
2018-01-18T08:00:21.531Z,2.30
2018-01-18T08:02:54.842Z,2.30
2018-01-18T08:05:22.391Z,2.40
2018-01-18T08:07:49.899Z,2.50
2018-01-18T08:10:17.513Z,2.70
2018-01-18T08:12:45.023Z,2.80
2018-01-18T08:15:12.554Z,2.90
2018-01-18T08:17:40.086Z,2.90
2018-01-18T08:20:07.660Z,3.00
2018-01-18T08:22:35.207Z,3.00
2018-01-18T08:25:02.737Z,3.10
2018-01-18T08:27:30.252Z,3.10
2018-01-18T08:29:57.829Z,3.10
2018-01-18T08:32:25.350Z,3.20
2018-01-18T08:34:52.908Z,3.30
2018-01-18T08:37:20.439Z,3.40
2018-01-18T08:39:48.723Z,3.40
2018-01-18T08:42:16.991Z,3.30
2018-01-18T08:44:44.518Z,3.30
2018-01-18T08:47:12.023Z,3.20
2018-01-18T08:49:40.312Z,3.20
2018-01-18T08:52:07.894Z,3.20
2018-01-18T08:54:35.424Z,3.20
2018-01-18T08:57:03.719Z,3.30
2018-01-18T08:59:31.255Z,3.30
2018-01-18T09:01:59.568Z,3.30
2018-01-18T09:04:27.114Z,3.30
2018-01-18T09:06:54.684Z,3.40
2018-01-18T09:09:22.240Z,3.30
2018-01-18T09:11:49.756Z,3.40
2018-01-18T09:14:17.364Z,3.40
2018-01-18T09:16:44.998Z,3.40
2018-01-18T09:19:13.214Z,3.40
2018-01-18T09:21:40.740Z,3.40
2018-01-18T09:24:09.018Z,3.30
2018-01-18T09:26:37.418Z,3.30
2018-01-18T09:29:04.967Z,3.30
2018-01-18T09:31:33.267Z,3.30
2018-01-18T09:34:00.827Z,3.30
2018-01-18T09:36:28.379Z,3.30
2018-01-18T09:38:55.940Z,3.30
2018-01-18T09:41:23.534Z,3.40
2018-01-18T09:43:51.042Z,3.40
2018-01-18T09:46:19.450Z,3.60
2018-01-18T09:48:46.989Z,3.50
2018-01-18T09:51:14.552Z,3.70
2018-01-18T09:53:42.827Z,3.70
2018-01-18T09:56:10.404Z,3.70
2018-01-18T09:58:37.966Z,3.90
2018-01-18T10:01:05.643Z,4.00
2018-01-18T10:03:33.712Z,4.50
2018-01-18T10:06:01.304Z,4.60
2018-01-18T10:08:28.806Z,4.50
2018-01-18T10:10:56.491Z,4.40
2018-01-18T10:13:24.009Z,4.40
2018-01-18T10:15:53.017Z,4.90
2018-01-18T10:18:21.420Z,5.20
2018-01-18T10:20:48.997Z,5.20
2018-01-18T10:23:16.676Z,5.20
2018-01-18T10:25:44.626Z,5.20
2018-01-18T10:28:12.177Z,5.30
2018-01-18T10:30:39.751Z,5.30
2018-01-18T10:33:07.277Z,5.40
2018-01-18T10:35:35.563Z,5.40
2018-01-18T10:38:03.567Z,5.40
2018-01-18T10:40:32.099Z,5.40
2018-01-18T10:43:00.404Z,5.90
2018-01-18T10:45:27.954Z,5.80
2018-01-18T10:47:55.541Z,5.90
2018-01-18T10:50:23.083Z,6.00
2018-01-18T10:52:50.595Z,5.80
2018-01-18T10:55:18.163Z,6.20
2018-01-18T10:57:45.679Z,6.10
2018-01-18T11:00:13.367Z,6.20
2018-01-18T11:02:40.869Z,6.40
2018-01-18T11:05:09.353Z,6.50
2018-01-18T11:07:37.643Z,6.50
2018-01-18T11:10:05.167Z,6.40
2018-01-18T11:12:32.668Z,6.60
2018-01-18T11:15:00.208Z,6.70
2018-01-18T11:17:27.737Z,6.50
2018-01-18T11:19:55.411Z,6.30
2018-01-18T11:22:23.021Z,6.30
2018-01-18T11:24:50.736Z,6.50
2018-01-18T11:27:18.238Z,6.40
2018-01-18T11:29:45.805Z,6.60
2018-01-18T11:32:13.364Z,6.70
2018-01-18T11:34:40.914Z,6.90
2018-01-18T11:37:08.427Z,6.70
2018-01-18T11:39:35.950Z,6.60
2018-01-18T11:42:03.472Z,6.40
2018-01-18T11:44:31.748Z,6.30
2018-01-18T11:47:00.094Z,6.40
2018-01-18T11:49:27.592Z,6.40
2018-01-18T11:51:55.867Z,6.30
2018-01-18T11:54:24.201Z,6.30
2018-01-18T11:56:51.826Z,6.20
2018-01-18T11:59:19.328Z,6.10
2018-01-18T12:01:46.843Z,5.90
2018-01-18T12:04:14.408Z,5.70
2018-01-18T12:06:42.187Z,5.50
2018-01-18T12:09:09.697Z,5.60
2018-01-18T12:11:37.222Z,5.40
2018-01-18T12:14:04.733Z,5.30
2018-01-18T12:16:33.029Z,4.90
2018-01-18T12:19:00.527Z,4.90
2018-01-18T12:21:28.088Z,4.90
2018-01-18T12:23:55.725Z,4.80
2018-01-18T12:26:23.291Z,4.60
2018-01-18T12:28:50.831Z,4.60
2018-01-18T12:31:18.401Z,4.60
2018-01-18T12:33:45.967Z,4.40
2018-01-18T12:36:13.521Z,4.50
2018-01-18T12:38:41.096Z,4.40
2018-01-18T12:41:08.604Z,4.40
2018-01-18T12:43:36.190Z,4.40
2018-01-18T12:46:03.714Z,4.40
2018-01-18T12:48:31.345Z,4.30
2018-01-18T12:50:58.881Z,4.30
2018-01-18T12:53:26.436Z,4.30
2018-01-18T12:55:54.000Z,4.30
2018-01-18T12:58:21.579Z,4.40
2018-01-18T13:00:49.122Z,4.40
2018-01-18T13:03:16.648Z,4.40
2018-01-18T13:05:44.252Z,4.50
2018-01-18T13:08:11.810Z,4.40
2018-01-18T13:10:39.693Z,4.40
2018-01-18T13:13:07.282Z,4.40
2018-01-18T13:15:34.827Z,4.40
2018-01-18T13:18:02.325Z,4.30
2018-01-18T13:20:29.847Z,4.20
2018-01-18T13:22:57.491Z,4.20
2018-01-18T13:25:25.022Z,4.20
2018-01-18T13:27:53.302Z,3.90
2018-01-18T13:30:21.693Z,3.80
2018-01-18T13:32:49.209Z,3.80
2018-01-18T13:35:16.741Z,3.70
2018-01-18T13:37:44.282Z,3.70
2018-01-18T13:40:11.833Z,3.60
2018-01-18T13:42:39.398Z,3.70
2018-01-18T13:45:06.957Z,3.60
2018-01-18T13:47:34.463Z,3.60
2018-01-18T13:50:01.991Z,3.70
2018-01-18T13:52:29.511Z,3.70
2018-01-18T13:54:57.810Z,3.60
2018-01-18T13:57:25.484Z,3.60
2018-01-18T13:59:53.043Z,3.60
2018-01-18T14:02:20.627Z,3.60
2018-01-18T14:04:48.517Z,3.60
2018-01-18T14:07:16.590Z,3.60
2018-01-18T14:09:44.461Z,3.50
2018-01-18T14:12:12.020Z,3.60
2018-01-18T14:14:40.155Z,3.50
2018-01-18T14:17:08.990Z,3.40
2018-01-18T14:19:36.564Z,3.40
2018-01-18T14:22:05.258Z,3.40
2018-01-18T14:24:33.062Z,3.40
2018-01-18T14:27:01.568Z,3.40
2018-01-18T14:29:29.394Z,3.30
2018-01-18T14:31:57.260Z,3.30
2018-01-18T14:34:26.070Z,3.30
2018-01-18T14:36:55.268Z,3.30
2018-01-18T14:39:23.032Z,3.30
2018-01-18T14:41:51.398Z,3.30
2018-01-18T14:44:19.384Z,3.20
2018-01-18T14:46:47.154Z,3.20
2018-01-18T14:49:16.306Z,3.30
2018-01-18T14:51:45.594Z,3.30
2018-01-18T14:54:16.946Z,3.30
2018-01-18T14:56:44.744Z,3.30
2018-01-18T14:59:12.419Z,3.30
2018-01-18T15:01:40.296Z,3.30
2018-01-18T15:04:08.472Z,3.30
2018-01-18T15:06:36.338Z,3.30
2018-01-18T15:09:05.110Z,3.40
2018-01-18T15:11:33.142Z,3.30
2018-01-18T15:14:01.072Z,3.30
2018-01-18T15:16:30.098Z,3.40
2018-01-18T15:18:57.770Z,3.40
2018-01-18T15:21:25.376Z,3.40
2018-01-18T15:23:53.565Z,3.50
2018-01-18T15:26:22.378Z,3.50
2018-01-18T15:28:50.341Z,3.40
2018-01-18T15:31:18.361Z,3.50
2018-01-18T15:33:47.305Z,3.50
2018-01-18T15:36:16.076Z,3.50
2018-01-18T15:38:44.869Z,3.50
2018-01-18T15:41:13.322Z,3.50
2018-01-18T15:43:42.299Z,3.60
2018-01-18T15:46:10.721Z,3.60
2018-01-18T15:48:39.315Z,3.50
2018-01-18T15:51:07.507Z,3.50
2018-01-18T15:53:36.171Z,3.50
2018-01-18T15:56:05.349Z,3.50
2018-01-18T15:58:32.920Z,3.50
2018-01-18T16:01:01.003Z,3.50
2018-01-18T16:03:29.359Z,3.50
2018-01-18T16:05:57.476Z,3.40
2018-01-18T16:08:26.626Z,3.50
2018-01-18T16:10:54.325Z,3.50
2018-01-18T16:13:21.854Z,3.50
2018-01-18T16:15:49.513Z,3.50
2018-01-18T16:18:18.196Z,3.50
2018-01-18T16:20:47.459Z,3.50
2018-01-18T16:23:15.822Z,3.50
2018-01-18T16:25:45.001Z,3.50
2018-01-18T16:28:14.588Z,3.50
2018-01-18T16:30:42.966Z,3.50
2018-01-18T16:33:11.280Z,3.50
2018-01-18T16:35:39.229Z,3.50
2018-01-18T16:38:06.819Z,3.50
2018-01-18T16:40:34.358Z,3.50
2018-01-18T16:43:01.933Z,3.50
2018-01-18T16:45:29.501Z,3.40
2018-01-18T16:47:57.249Z,3.50
2018-01-18T16:50:24.868Z,3.50
2018-01-18T16:52:53.177Z,3.40
2018-01-18T16:55:20.699Z,3.40
2018-01-18T16:57:48.452Z,3.40
2018-01-18T17:00:16.297Z,3.40
2018-01-18T17:02:44.363Z,3.30
2018-01-18T17:05:12.510Z,3.30
2018-01-18T17:07:40.178Z,3.30
2018-01-18T17:10:08.060Z,3.30
2018-01-18T17:12:37.325Z,3.30
2018-01-18T17:15:07.027Z,3.20
2018-01-18T17:17:35.508Z,3.20
2018-01-18T17:20:03.960Z,3.20
2018-01-18T17:22:33.455Z,3.20
2018-01-18T17:25:02.080Z,3.20
2018-01-18T17:27:30.205Z,3.10
2018-01-18T17:29:59.092Z,3.10
2018-01-18T17:32:27.548Z,3.10
2018-01-18T17:34:55.831Z,3.20
2018-01-18T17:37:23.521Z,3.10
2018-01-18T17:39:52.615Z,3.10
2018-01-18T17:42:20.365Z,3.10
2018-01-18T17:44:48.129Z,3.10
2018-01-18T17:47:15.690Z,3.00
2018-01-18T17:49:43.255Z,3.00
2018-01-18T17:52:10.814Z,2.90
2018-01-18T17:54:38.377Z,2.70
2018-01-18T17:57:05.943Z,2.70
2018-01-18T17:59:34.651Z,2.70
2018-01-18T18:02:02.228Z,2.70
2018-01-18T18:04:29.739Z,2.60
2018-01-18T18:06:57.279Z,2.60
2018-01-18T18:09:25.571Z,2.60
2018-01-18T18:11:53.079Z,2.60
2018-01-18T18:14:20.696Z,2.60
2018-01-18T18:16:48.277Z,2.60
2018-01-18T18:19:15.799Z,2.60
2018-01-18T18:21:44.483Z,2.60
2018-01-18T18:24:12.497Z,2.50
2018-01-18T18:26:40.464Z,2.60
2018-01-18T18:29:08.223Z,2.60
2018-01-18T18:31:35.783Z,2.60
2018-01-18T18:34:03.358Z,2.60
2018-01-18T18:36:31.132Z,2.60
2018-01-18T18:38:58.950Z,2.60
2018-01-18T18:41:27.570Z,2.60
2018-01-18T18:43:55.544Z,2.60
2018-01-18T18:46:23.720Z,2.60
2018-01-18T18:48:51.535Z,2.60
2018-01-18T18:51:20.192Z,2.60
2018-01-18T18:53:49.716Z,2.70
2018-01-18T18:56:17.747Z,2.70
2018-01-18T18:58:45.616Z,2.70
2018-01-18T19:01:14.168Z,2.80
2018-01-18T19:03:42.489Z,2.90
2018-01-18T19:06:10.669Z,2.90
2018-01-18T19:08:38.708Z,2.90
2018-01-18T19:11:06.279Z,2.90
2018-01-18T19:13:33.948Z,2.90
2018-01-18T19:16:01.644Z,2.90
2018-01-18T19:18:29.378Z,2.90
2018-01-18T19:20:56.960Z,3.00
2018-01-18T19:23:24.745Z,3.00
2018-01-18T19:25:53.294Z,3.00
2018-01-18T19:28:20.968Z,2.90
2018-01-18T19:30:48.515Z,3.00
2018-01-18T19:33:16.189Z,3.00
2018-01-18T19:35:43.732Z,3.00
2018-01-18T19:38:11.256Z,3.00
2018-01-18T19:40:39.655Z,3.00
2018-01-18T19:43:07.509Z,3.00
2018-01-18T19:45:36.707Z,3.00
2018-01-18T19:48:05.837Z,3.00
2018-01-18T19:50:35.008Z,3.00
2018-01-18T19:53:03.919Z,3.10
2018-01-18T19:55:31.591Z,3.10
2018-01-18T19:57:59.141Z,3.10
2018-01-18T20:00:26.721Z,3.00
2018-01-18T20:02:54.247Z,3.00
2018-01-18T20:05:21.809Z,3.00
2018-01-18T20:07:49.601Z,3.00
2018-01-18T20:10:17.251Z,3.00
2018-01-18T20:12:44.791Z,3.00
2018-01-18T20:15:13.118Z,3.00
2018-01-18T20:17:40.766Z,3.00
2018-01-18T20:20:08.339Z,3.00
2018-01-18T20:22:37.532Z,3.00
2018-01-18T20:25:05.052Z,3.00
2018-01-18T20:27:32.645Z,2.90
2018-01-18T20:30:00.166Z,2.90
2018-01-18T20:32:28.465Z,2.90
2018-01-18T20:34:55.975Z,2.90
2018-01-18T20:37:24.290Z,3.00
2018-01-18T20:39:52.603Z,3.00
2018-01-18T20:42:20.263Z,3.00
2018-01-18T20:44:48.246Z,2.90
2018-01-18T20:47:15.808Z,3.00
2018-01-18T20:49:43.481Z,2.90
2018-01-18T20:52:11.036Z,2.90
2018-01-18T20:54:38.912Z,2.90
2018-01-18T20:57:06.449Z,2.90
2018-01-18T20:59:33.953Z,3.00
2018-01-18T21:02:01.497Z,3.00
2018-01-18T21:04:29.022Z,2.90
2018-01-18T21:06:56.717Z,3.00
2018-01-18T21:09:24.340Z,2.90
2018-01-18T21:11:51.902Z,2.90
2018-01-18T21:14:19.504Z,2.90
2018-01-18T21:16:47.868Z,2.90
2018-01-18T21:19:15.507Z,2.90
2018-01-18T21:21:43.508Z,2.90
2018-01-18T21:24:11.395Z,2.90
2018-01-18T21:26:38.917Z,3.00
2018-01-18T21:29:07.192Z,3.00
2018-01-18T21:31:34.738Z,3.10
2018-01-18T21:34:02.422Z,3.10
2018-01-18T21:36:30.010Z,3.20
2018-01-18T21:38:58.139Z,3.10
2018-01-18T21:41:25.708Z,3.10
2018-01-18T21:43:53.313Z,3.10
2018-01-18T21:46:22.167Z,3.10
2018-01-18T21:48:49.803Z,3.10
2018-01-18T21:51:18.001Z,3.00
2018-01-18T21:53:46.107Z,3.00
2018-01-18T21:56:13.730Z,3.00
2018-01-18T21:58:41.281Z,3.00
2018-01-18T22:01:08.800Z,3.00
2018-01-18T22:03:36.309Z,3.00
2018-01-18T22:06:03.876Z,3.10
2018-01-18T22:08:31.427Z,3.10
2018-01-18T22:10:59.015Z,3.10
2018-01-18T22:13:26.531Z,3.10
2018-01-18T22:15:54.067Z,3.10
2018-01-18T22:18:21.578Z,3.10
2018-01-18T22:20:49.132Z,3.10
2018-01-18T22:23:16.683Z,3.10
2018-01-18T22:25:44.273Z,3.10
2018-01-18T22:28:11.808Z,3.10
2018-01-18T22:30:39.332Z,3.10
2018-01-18T22:33:06.953Z,3.20
2018-01-18T22:35:34.487Z,3.10
2018-01-18T22:38:02.110Z,3.10
2018-01-18T22:40:29.640Z,3.10
2018-01-18T22:42:57.152Z,3.10
2018-01-18T22:45:25.451Z,3.10
2018-01-18T22:47:52.982Z,3.10
2018-01-18T22:50:21.288Z,3.10
2018-01-18T22:52:48.798Z,3.10
2018-01-18T22:55:16.330Z,3.10
2018-01-18T22:57:43.844Z,3.10
2018-01-18T23:00:27.113Z,3.10
2018-01-18T23:02:54.629Z,3.10
2018-01-18T23:05:22.904Z,3.00
2018-01-18T23:07:51.216Z,3.00
2018-01-18T23:10:19.094Z,3.00
2018-01-18T23:12:46.650Z,3.00
2018-01-18T23:15:14.195Z,3.00
2018-01-18T23:17:41.759Z,3.00
2018-01-18T23:20:09.285Z,3.00
2018-01-18T23:22:37.700Z,3.10
2018-01-18T23:25:05.256Z,3.00
2018-01-18T23:27:32.786Z,3.00
2018-01-18T23:30:00.294Z,3.00
2018-01-18T23:32:27.819Z,3.00
2018-01-18T23:34:56.116Z,3.00
2018-01-18T23:37:23.632Z,3.00
2018-01-18T23:39:51.236Z,3.10
2018-01-18T23:42:18.801Z,3.10
2018-01-18T23:44:46.375Z,3.10
2018-01-18T23:47:13.959Z,3.10
2018-01-18T23:49:41.487Z,3.10
2018-01-18T23:52:09.026Z,3.10
2018-01-18T23:54:37.316Z,3.10
2018-01-18T23:57:04.876Z,3.10
2018-01-18T23:59:32.437Z,3.10
